sensor_id;sensor_type;location;lat;lon;timestamp;P1;durP1;ratioP1;P2;durP2;ratioP2
39782;SDS011;25462;51.164;17.100;2023-07-13T00:03:01;12.60;;;5.10;;
39782;SDS011;25462;51.164;17.100;2023-07-13T00:08:06;11.20;;;6.10;;
39782;SDS011;25462;51.164;17.100;2023-07-13T00:13:11;10.80;;;5.50;;
39782;SDS011;25462;51.164;17.100;2023-07-13T00:18:15;8.50;;;5.70;;
39782;SDS011;25462;51.164;17.100;2023-07-13T00:23:19;13.50;;;7.60;;
39782;SDS011;25462;51.164;17.100;2023-07-13T00:28:23;8.00;;;5.90;;
39782;SDS011;25462;51.164;17.100;2023-07-13T00:33:27;9.80;;;6.20;;
39782;SDS011;25462;51.164;17.100;2023-07-13T00:38:32;7.80;;;5.00;;
39782;SDS011;25462;51.164;17.100;2023-07-13T00:43:36;12.30;;;6.70;;
39782;SDS011;25462;51.164;17.100;2023-07-13T00:48:40;9.30;;;5.90;;
39782;SDS011;25462;51.164;17.100;2023-07-13T00:53:44;11.70;;;6.20;;
39782;SDS011;25462;51.164;17.100;2023-07-13T00:58:48;9.40;;;5.20;;
39782;SDS011;25462;51.164;17.100;2023-07-13T01:03:53;9.40;;;5.80;;
39782;SDS011;25462;51.164;17.100;2023-07-13T01:08:58;13.00;;;5.70;;
39782;SDS011;25462;51.164;17.100;2023-07-13T01:14:03;11.50;;;5.40;;
39782;SDS011;25462;51.164;17.100;2023-07-13T01:19:11;19.00;;;5.90;;
39782;SDS011;25462;51.164;17.100;2023-07-13T01:24:41;14.00;;;9.70;;
39782;SDS011;25462;51.164;17.100;2023-07-13T01:29:51;14.90;;;7.60;;
39782;SDS011;25462;51.164;17.100;2023-07-13T01:34:55;13.00;;;6.50;;
39782;SDS011;25462;51.164;17.100;2023-07-13T01:40:00;8.10;;;6.60;;
39782;SDS011;25462;51.164;17.100;2023-07-13T01:45:06;14.30;;;6.30;;
39782;SDS011;25462;51.164;17.100;2023-07-13T01:50:11;13.80;;;7.10;;
39782;SDS011;25462;51.164;17.100;2023-07-13T01:55:15;9.60;;;6.50;;
39782;SDS011;25462;51.164;17.100;2023-07-13T02:00:19;9.00;;;6.50;;
39782;SDS011;25462;51.164;17.100;2023-07-13T02:05:23;13.30;;;6.60;;
39782;SDS011;25462;51.164;17.100;2023-07-13T02:10:26;11.60;;;7.10;;
39782;SDS011;25462;51.164;17.100;2023-07-13T02:15:32;12.50;;;8.00;;
39782;SDS011;25462;51.164;17.100;2023-07-13T02:20:35;17.70;;;7.60;;
39782;SDS011;25462;51.164;17.100;2023-07-13T02:25:40;10.20;;;7.80;;
39782;SDS011;25462;51.164;17.100;2023-07-13T02:30:44;14.20;;;8.00;;
39782;SDS011;25462;51.164;17.100;2023-07-13T02:35:48;10.60;;;7.40;;
39782;SDS011;25462;51.164;17.100;2023-07-13T02:40:52;12.10;;;7.70;;
39782;SDS011;25462;51.164;17.100;2023-07-13T02:45:58;10.20;;;8.50;;
39782;SDS011;25462;51.164;17.100;2023-07-13T02:51:07;15.00;;;7.70;;
39782;SDS011;25462;51.164;17.100;2023-07-13T02:56:11;15.00;;;8.10;;
39782;SDS011;25462;51.164;17.100;2023-07-13T03:01:19;11.30;;;9.30;;
39782;SDS011;25462;51.164;17.100;2023-07-13T03:06:24;9.90;;;7.50;;
39782;SDS011;25462;51.164;17.100;2023-07-13T03:11:29;11.10;;;8.50;;
39782;SDS011;25462;51.164;17.100;2023-07-13T03:16:46;11.40;;;7.30;;
39782;SDS011;25462;51.164;17.100;2023-07-13T03:21:50;13.50;;;7.90;;
39782;SDS011;25462;51.164;17.100;2023-07-13T03:26:54;18.30;;;8.80;;
39782;SDS011;25462;51.164;17.100;2023-07-13T03:31:59;18.10;;;9.60;;
39782;SDS011;25462;51.164;17.100;2023-07-13T03:37:03;13.40;;;9.50;;
39782;SDS011;25462;51.164;17.100;2023-07-13T03:42:07;19.70;;;9.10;;
39782;SDS011;25462;51.164;17.100;2023-07-13T03:47:11;14.30;;;9.00;;
39782;SDS011;25462;51.164;17.100;2023-07-13T03:52:16;14.10;;;8.20;;
39782;SDS011;25462;51.164;17.100;2023-07-13T03:57:20;11.90;;;7.40;;
39782;SDS011;25462;51.164;17.100;2023-07-13T04:02:24;11.50;;;6.80;;
39782;SDS011;25462;51.164;17.100;2023-07-13T04:07:29;12.30;;;7.80;;
39782;SDS011;25462;51.164;17.100;2023-07-13T04:12:35;11.20;;;7.50;;
39782;SDS011;25462;51.164;17.100;2023-07-13T04:17:39;11.40;;;8.10;;
39782;SDS011;25462;51.164;17.100;2023-07-13T04:22:43;10.60;;;7.50;;
39782;SDS011;25462;51.164;17.100;2023-07-13T04:27:47;12.70;;;7.10;;
39782;SDS011;25462;51.164;17.100;2023-07-13T04:32:52;9.00;;;5.70;;
39782;SDS011;25462;51.164;17.100;2023-07-13T04:37:56;7.80;;;5.20;;
39782;SDS011;25462;51.164;17.100;2023-07-13T04:43:02;7.90;;;4.10;;
39782;SDS011;25462;51.164;17.100;2023-07-13T04:48:06;5.60;;;3.20;;
39782;SDS011;25462;51.164;17.100;2023-07-13T04:53:10;7.60;;;3.70;;
39782;SDS011;25462;51.164;17.100;2023-07-13T04:58:14;8.20;;;3.80;;
39782;SDS011;25462;51.164;17.100;2023-07-13T05:03:18;6.10;;;3.70;;
39782;SDS011;25462;51.164;17.100;2023-07-13T05:08:22;10.90;;;3.90;;
39782;SDS011;25462;51.164;17.100;2023-07-13T05:13:26;4.40;;;3.50;;
39782;SDS011;25462;51.164;17.100;2023-07-13T05:18:32;8.10;;;4.30;;
39782;SDS011;25462;51.164;17.100;2023-07-13T05:23:37;4.60;;;3.30;;
39782;SDS011;25462;51.164;17.100;2023-07-13T05:28:43;8.60;;;4.40;;
39782;SDS011;25462;51.164;17.100;2023-07-13T05:33:47;7.20;;;4.30;;
39782;SDS011;25462;51.164;17.100;2023-07-13T05:38:50;5.70;;;4.00;;
39782;SDS011;25462;51.164;17.100;2023-07-13T05:43:55;9.80;;;3.90;;
39782;SDS011;25462;51.164;17.100;2023-07-13T05:48:59;6.40;;;3.90;;
39782;SDS011;25462;51.164;17.100;2023-07-13T05:54:05;5.90;;;3.80;;
39782;SDS011;25462;51.164;17.100;2023-07-13T05:59:08;8.40;;;3.90;;
39782;SDS011;25462;51.164;17.100;2023-07-13T06:04:13;5.90;;;3.30;;
39782;SDS011;25462;51.164;17.100;2023-07-13T06:09:17;8.50;;;3.70;;
39782;SDS011;25462;51.164;17.100;2023-07-13T06:14:21;10.50;;;4.10;;
39782;SDS011;25462;51.164;17.100;2023-07-13T06:19:25;11.10;;;3.80;;
39782;SDS011;25462;51.164;17.100;2023-07-13T06:24:29;5.00;;;3.30;;
39782;SDS011;25462;51.164;17.100;2023-07-13T06:29:34;9.10;;;3.70;;
39782;SDS011;25462;51.164;17.100;2023-07-13T06:34:42;8.10;;;3.80;;
39782;SDS011;25462;51.164;17.100;2023-07-13T06:39:48;6.40;;;2.80;;
39782;SDS011;25462;51.164;17.100;2023-07-13T06:44:52;8.30;;;3.20;;
39782;SDS011;25462;51.164;17.100;2023-07-13T06:49:57;5.50;;;3.20;;
39782;SDS011;25462;51.164;17.100;2023-07-13T06:55:02;8.40;;;3.70;;
39782;SDS011;25462;51.164;17.100;2023-07-13T07:00:06;7.20;;;2.90;;
39782;SDS011;25462;51.164;17.100;2023-07-13T07:05:14;7.90;;;3.80;;
39782;SDS011;25462;51.164;17.100;2023-07-13T07:10:18;9.10;;;3.70;;
39782;SDS011;25462;51.164;17.100;2023-07-13T07:15:23;5.30;;;3.90;;
39782;SDS011;25462;51.164;17.100;2023-07-13T07:20:28;7.50;;;4.30;;
39782;SDS011;25462;51.164;17.100;2023-07-13T07:25:34;6.60;;;4.70;;
39782;SDS011;25462;51.164;17.100;2023-07-13T07:30:44;8.80;;;4.00;;
39782;SDS011;25462;51.164;17.100;2023-07-13T07:35:52;8.00;;;4.10;;
39782;SDS011;25462;51.164;17.100;2023-07-13T07:41:01;10.40;;;4.90;;
39782;SDS011;25462;51.164;17.100;2023-07-13T07:46:10;8.80;;;5.50;;
39782;SDS011;25462;51.164;17.100;2023-07-13T07:51:14;8.50;;;5.60;;
39782;SDS011;25462;51.164;17.100;2023-07-13T07:56:18;9.10;;;5.40;;
39782;SDS011;25462;51.164;17.100;2023-07-13T08:01:25;7.40;;;5.20;;
39782;SDS011;25462;51.164;17.100;2023-07-13T08:06:33;10.10;;;4.50;;
39782;SDS011;25462;51.164;17.100;2023-07-13T08:11:39;7.70;;;4.70;;
39782;SDS011;25462;51.164;17.100;2023-07-13T08:16:46;8.20;;;4.20;;
39782;SDS011;25462;51.164;17.100;2023-07-13T08:21:50;9.70;;;4.10;;
39782;SDS011;25462;51.164;17.100;2023-07-13T08:26:54;8.20;;;4.50;;
39782;SDS011;25462;51.164;17.100;2023-07-13T08:31:58;10.00;;;4.30;;
39782;SDS011;25462;51.164;17.100;2023-07-13T08:37:02;6.90;;;4.00;;
39782;SDS011;25462;51.164;17.100;2023-07-13T08:42:09;5.00;;;3.90;;
39782;SDS011;25462;51.164;17.100;2023-07-13T08:47:18;8.20;;;4.10;;
39782;SDS011;25462;51.164;17.100;2023-07-13T08:57:50;8.80;;;4.00;;
39782;SDS011;25462;51.164;17.100;2023-07-13T09:02:58;5.40;;;3.50;;
39782;SDS011;25462;51.164;17.100;2023-07-13T09:18:44;5.30;;;3.20;;
39782;SDS011;25462;51.164;17.100;2023-07-13T09:23:52;7.20;;;3.30;;
39782;SDS011;25462;51.164;17.100;2023-07-13T09:29:09;6.00;;;2.90;;
39782;SDS011;25462;51.164;17.100;2023-07-13T09:34:17;6.10;;;3.00;;
39782;SDS011;25462;51.164;17.100;2023-07-13T09:39:26;5.90;;;3.70;;
39782;SDS011;25462;51.164;17.100;2023-07-13T09:44:35;5.80;;;3.80;;
39782;SDS011;25462;51.164;17.100;2023-07-13T09:49:41;6.60;;;3.70;;
39782;SDS011;25462;51.164;17.100;2023-07-13T09:54:48;5.70;;;3.80;;
39782;SDS011;25462;51.164;17.100;2023-07-13T09:59:54;7.90;;;3.60;;
39782;SDS011;25462;51.164;17.100;2023-07-13T10:05:07;6.10;;;4.10;;
39782;SDS011;25462;51.164;17.100;2023-07-13T10:10:17;9.00;;;3.80;;
39782;SDS011;25462;51.164;17.100;2023-07-13T10:15:24;5.90;;;2.80;;
39782;SDS011;25462;51.164;17.100;2023-07-13T10:20:31;9.20;;;3.60;;
39782;SDS011;25462;51.164;17.100;2023-07-13T10:25:37;14.70;;;9.50;;
39782;SDS011;25462;51.164;17.100;2023-07-13T10:30:43;8.20;;;4.60;;
39782;SDS011;25462;51.164;17.100;2023-07-13T10:35:51;5.50;;;2.50;;
39782;SDS011;25462;51.164;17.100;2023-07-13T10:41:34;3.20;;;2.10;;
39782;SDS011;25462;51.164;17.100;2023-07-13T10:46:29;4.90;;;2.00;;
39782;SDS011;25462;51.164;17.100;2023-07-13T10:51:34;5.50;;;2.90;;
39782;SDS011;25462;51.164;17.100;2023-07-13T10:56:38;6.50;;;2.00;;
39782;SDS011;25462;51.164;17.100;2023-07-13T11:01:48;4.80;;;2.40;;
39782;SDS011;25462;51.164;17.100;2023-07-13T11:06:57;6.80;;;2.20;;
39782;SDS011;25462;51.164;17.100;2023-07-13T11:12:03;4.50;;;2.30;;
39782;SDS011;25462;51.164;17.100;2023-07-13T11:28:04;2.90;;;1.90;;
39782;SDS011;25462;51.164;17.100;2023-07-13T11:33:17;3.70;;;1.90;;
39782;SDS011;25462;51.164;17.100;2023-07-13T11:38:38;3.40;;;1.80;;
39782;SDS011;25462;51.164;17.100;2023-07-13T11:43:43;6.10;;;2.10;;
39782;SDS011;25462;51.164;17.100;2023-07-13T11:48:48;5.50;;;2.00;;
39782;SDS011;25462;51.164;17.100;2023-07-13T11:53:54;5.10;;;2.10;;
39782;SDS011;25462;51.164;17.100;2023-07-13T11:59:04;4.60;;;1.90;;
39782;SDS011;25462;51.164;17.100;2023-07-13T12:04:21;2.60;;;1.50;;
39782;SDS011;25462;51.164;17.100;2023-07-13T12:09:27;3.70;;;2.00;;
39782;SDS011;25462;51.164;17.100;2023-07-13T12:14:33;3.60;;;1.60;;
39782;SDS011;25462;51.164;17.100;2023-07-13T12:19:37;3.00;;;1.70;;
39782;SDS011;25462;51.164;17.100;2023-07-13T12:24:41;4.30;;;1.90;;
39782;SDS011;25462;51.164;17.100;2023-07-13T12:29:50;3.20;;;1.80;;
39782;SDS011;25462;51.164;17.100;2023-07-13T12:35:07;4.00;;;1.80;;
39782;SDS011;25462;51.164;17.100;2023-07-13T12:40:32;3.40;;;1.70;;
39782;SDS011;25462;51.164;17.100;2023-07-13T12:45:39;2.80;;;1.70;;
39782;SDS011;25462;51.164;17.100;2023-07-13T12:51:02;7.00;;;1.80;;
39782;SDS011;25462;51.164;17.100;2023-07-13T12:56:06;5.10;;;2.00;;
39782;SDS011;25462;51.164;17.100;2023-07-13T13:01:15;5.60;;;1.80;;
39782;SDS011;25462;51.164;17.100;2023-07-13T13:06:24;5.50;;;2.20;;
39782;SDS011;25462;51.164;17.100;2023-07-13T13:11:31;4.80;;;2.00;;
39782;SDS011;25462;51.164;17.100;2023-07-13T13:16:37;3.90;;;1.80;;
39782;SDS011;25462;51.164;17.100;2023-07-13T13:21:49;5.10;;;2.10;;
39782;SDS011;25462;51.164;17.100;2023-07-13T13:26:55;4.10;;;2.00;;
39782;SDS011;25462;51.164;17.100;2023-07-13T13:32:00;4.20;;;1.80;;
39782;SDS011;25462;51.164;17.100;2023-07-13T13:37:11;4.70;;;1.90;;
39782;SDS011;25462;51.164;17.100;2023-07-13T13:42:21;4.50;;;1.60;;
39782;SDS011;25462;51.164;17.100;2023-07-13T13:47:31;3.80;;;1.80;;
39782;SDS011;25462;51.164;17.100;2023-07-13T13:52:36;5.90;;;1.80;;
39782;SDS011;25462;51.164;17.100;2023-07-13T13:57:40;3.80;;;2.00;;
39782;SDS011;25462;51.164;17.100;2023-07-13T14:02:45;3.40;;;1.70;;
39782;SDS011;25462;51.164;17.100;2023-07-13T14:07:54;3.40;;;1.80;;
39782;SDS011;25462;51.164;17.100;2023-07-13T14:12:59;2.70;;;1.50;;
39782;SDS011;25462;51.164;17.100;2023-07-13T14:18:03;5.20;;;1.90;;
39782;SDS011;25462;51.164;17.100;2023-07-13T14:23:07;4.20;;;2.10;;
39782;SDS011;25462;51.164;17.100;2023-07-13T14:28:23;3.40;;;1.70;;
39782;SDS011;25462;51.164;17.100;2023-07-13T14:33:30;4.30;;;2.00;;
39782;SDS011;25462;51.164;17.100;2023-07-13T14:38:36;3.60;;;1.80;;
39782;SDS011;25462;51.164;17.100;2023-07-13T14:43:40;3.10;;;1.70;;
39782;SDS011;25462;51.164;17.100;2023-07-13T14:48:45;6.30;;;1.90;;
39782;SDS011;25462;51.164;17.100;2023-07-13T14:53:52;4.10;;;1.60;;
39782;SDS011;25462;51.164;17.100;2023-07-13T14:58:59;4.00;;;1.70;;
39782;SDS011;25462;51.164;17.100;2023-07-13T15:04:05;4.20;;;1.70;;
39782;SDS011;25462;51.164;17.100;2023-07-13T15:09:11;4.70;;;1.80;;
39782;SDS011;25462;51.164;17.100;2023-07-13T15:14:15;2.70;;;1.90;;
39782;SDS011;25462;51.164;17.100;2023-07-13T15:19:21;5.10;;;1.70;;
39782;SDS011;25462;51.164;17.100;2023-07-13T15:24:27;4.00;;;1.60;;
39782;SDS011;25462;51.164;17.100;2023-07-13T15:29:32;4.10;;;1.80;;
39782;SDS011;25462;51.164;17.100;2023-07-13T15:34:36;3.30;;;1.90;;
39782;SDS011;25462;51.164;17.100;2023-07-13T15:39:40;4.20;;;2.20;;
39782;SDS011;25462;51.164;17.100;2023-07-13T15:44:44;4.70;;;2.30;;
39782;SDS011;25462;51.164;17.100;2023-07-13T15:49:48;4.80;;;2.10;;
39782;SDS011;25462;51.164;17.100;2023-07-13T15:54:53;3.80;;;2.00;;
39782;SDS011;25462;51.164;17.100;2023-07-13T15:59:57;4.50;;;1.90;;
39782;SDS011;25462;51.164;17.100;2023-07-13T16:05:03;3.90;;;1.90;;
39782;SDS011;25462;51.164;17.100;2023-07-13T16:10:07;3.20;;;1.80;;
39782;SDS011;25462;51.164;17.100;2023-07-13T16:15:18;4.20;;;2.00;;
39782;SDS011;25462;51.164;17.100;2023-07-13T16:20:24;3.50;;;1.90;;
39782;SDS011;25462;51.164;17.100;2023-07-13T16:25:28;6.50;;;2.00;;
39782;SDS011;25462;51.164;17.100;2023-07-13T16:30:33;5.40;;;2.30;;
39782;SDS011;25462;51.164;17.100;2023-07-13T16:35:38;5.30;;;2.00;;
39782;SDS011;25462;51.164;17.100;2023-07-13T16:40:45;5.30;;;2.20;;
39782;SDS011;25462;51.164;17.100;2023-07-13T16:45:50;5.80;;;2.80;;
39782;SDS011;25462;51.164;17.100;2023-07-13T16:50:55;5.50;;;2.00;;
39782;SDS011;25462;51.164;17.100;2023-07-13T16:56:01;4.80;;;2.10;;
39782;SDS011;25462;51.164;17.100;2023-07-13T17:01:07;4.00;;;2.50;;
39782;SDS011;25462;51.164;17.100;2023-07-13T17:06:22;4.80;;;2.60;;
39782;SDS011;25462;51.164;17.100;2023-07-13T17:11:27;6.50;;;2.30;;
39782;SDS011;25462;51.164;17.100;2023-07-13T17:16:36;3.10;;;2.30;;
39782;SDS011;25462;51.164;17.100;2023-07-13T17:21:40;3.80;;;2.10;;
39782;SDS011;25462;51.164;17.100;2023-07-13T17:26:47;4.90;;;2.50;;
39782;SDS011;25462;51.164;17.100;2023-07-13T17:31:54;4.20;;;2.60;;
39782;SDS011;25462;51.164;17.100;2023-07-13T17:37:00;3.10;;;2.30;;
39782;SDS011;25462;51.164;17.100;2023-07-13T17:42:04;3.80;;;2.10;;
39782;SDS011;25462;51.164;17.100;2023-07-13T17:47:43;5.70;;;2.40;;
39782;SDS011;25462;51.164;17.100;2023-07-13T17:52:40;4.70;;;2.20;;
39782;SDS011;25462;51.164;17.100;2023-07-13T17:57:45;5.20;;;2.30;;
39782;SDS011;25462;51.164;17.100;2023-07-13T18:03:08;4.30;;;2.30;;
39782;SDS011;25462;51.164;17.100;2023-07-13T18:08:21;6.00;;;2.50;;
39782;SDS011;25462;51.164;17.100;2023-07-13T18:13:33;6.70;;;2.60;;
39782;SDS011;25462;51.164;17.100;2023-07-13T18:18:44;6.40;;;4.70;;
39782;SDS011;25462;51.164;17.100;2023-07-13T18:23:50;9.00;;;7.40;;
39782;SDS011;25462;51.164;17.100;2023-07-13T18:29:00;7.50;;;5.10;;
39782;SDS011;25462;51.164;17.100;2023-07-13T18:34:08;9.60;;;5.00;;
39782;SDS011;25462;51.164;17.100;2023-07-13T18:39:15;11.00;;;8.00;;
39782;SDS011;25462;51.164;17.100;2023-07-13T18:44:20;11.50;;;7.40;;
39782;SDS011;25462;51.164;17.100;2023-07-13T18:49:27;8.90;;;5.50;;
39782;SDS011;25462;51.164;17.100;2023-07-13T18:54:32;6.20;;;3.90;;
39782;SDS011;25462;51.164;17.100;2023-07-13T18:59:36;5.00;;;3.80;;
39782;SDS011;25462;51.164;17.100;2023-07-13T19:04:41;6.20;;;3.10;;
39782;SDS011;25462;51.164;17.100;2023-07-13T19:09:46;8.60;;;4.00;;
39782;SDS011;25462;51.164;17.100;2023-07-13T19:14:51;4.30;;;2.00;;
39782;SDS011;25462;51.164;17.100;2023-07-13T19:19:56;4.40;;;2.50;;
39782;SDS011;25462;51.164;17.100;2023-07-13T19:25:02;5.40;;;2.20;;
39782;SDS011;25462;51.164;17.100;2023-07-13T19:30:10;2.90;;;2.00;;
39782;SDS011;25462;51.164;17.100;2023-07-13T19:35:38;5.50;;;2.10;;
39782;SDS011;25462;51.164;17.100;2023-07-13T19:40:44;8.80;;;4.50;;
39782;SDS011;25462;51.164;17.100;2023-07-13T19:45:50;8.20;;;3.20;;
39782;SDS011;25462;51.164;17.100;2023-07-13T19:50:56;9.00;;;3.30;;
39782;SDS011;25462;51.164;17.100;2023-07-13T19:56:01;5.90;;;3.10;;
39782;SDS011;25462;51.164;17.100;2023-07-13T20:01:07;5.60;;;3.40;;
39782;SDS011;25462;51.164;17.100;2023-07-13T20:11:43;6.20;;;3.80;;
39782;SDS011;25462;51.164;17.100;2023-07-13T20:16:56;6.30;;;3.40;;
39782;SDS011;25462;51.164;17.100;2023-07-13T20:22:04;7.50;;;3.50;;
39782;SDS011;25462;51.164;17.100;2023-07-13T20:27:14;3.50;;;2.30;;
39782;SDS011;25462;51.164;17.100;2023-07-13T20:32:22;6.40;;;2.70;;
39782;SDS011;25462;51.164;17.100;2023-07-13T20:37:35;5.20;;;2.40;;
39782;SDS011;25462;51.164;17.100;2023-07-13T20:42:41;4.30;;;2.30;;
39782;SDS011;25462;51.164;17.100;2023-07-13T20:47:46;3.70;;;2.60;;
39782;SDS011;25462;51.164;17.100;2023-07-13T20:52:53;6.20;;;2.80;;
39782;SDS011;25462;51.164;17.100;2023-07-13T20:57:59;5.80;;;2.70;;
39782;SDS011;25462;51.164;17.100;2023-07-13T21:03:04;6.70;;;2.70;;
39782;SDS011;25462;51.164;17.100;2023-07-13T21:08:10;5.00;;;2.70;;
39782;SDS011;25462;51.164;17.100;2023-07-13T21:13:18;4.40;;;2.80;;
39782;SDS011;25462;51.164;17.100;2023-07-13T21:18:24;10.00;;;2.80;;
39782;SDS011;25462;51.164;17.100;2023-07-13T21:23:33;4.60;;;2.70;;
39782;SDS011;25462;51.164;17.100;2023-07-13T21:28:40;6.20;;;2.90;;
39782;SDS011;25462;51.164;17.100;2023-07-13T21:33:45;6.80;;;3.10;;
39782;SDS011;25462;51.164;17.100;2023-07-13T21:38:53;7.20;;;3.50;;
39782;SDS011;25462;51.164;17.100;2023-07-13T21:43:59;8.90;;;3.70;;
39782;SDS011;25462;51.164;17.100;2023-07-13T21:49:03;5.90;;;3.00;;
39782;SDS011;25462;51.164;17.100;2023-07-13T21:54:18;8.20;;;5.00;;
39782;SDS011;25462;51.164;17.100;2023-07-13T21:59:25;6.50;;;3.30;;
39782;SDS011;25462;51.164;17.100;2023-07-13T22:04:30;7.20;;;3.70;;
39782;SDS011;25462;51.164;17.100;2023-07-13T22:09:34;7.30;;;3.70;;
39782;SDS011;25462;51.164;17.100;2023-07-13T22:14:38;6.20;;;3.50;;
39782;SDS011;25462;51.164;17.100;2023-07-13T22:19:43;4.70;;;3.00;;
39782;SDS011;25462;51.164;17.100;2023-07-13T22:24:47;8.70;;;3.90;;
39782;SDS011;25462;51.164;17.100;2023-07-13T22:29:51;7.70;;;3.80;;
39782;SDS011;25462;51.164;17.100;2023-07-13T22:34:54;9.40;;;3.50;;
39782;SDS011;25462;51.164;17.100;2023-07-13T22:40:14;10.40;;;4.20;;
39782;SDS011;25462;51.164;17.100;2023-07-13T22:45:20;13.30;;;4.10;;
39782;SDS011;25462;51.164;17.100;2023-07-13T22:50:24;6.80;;;4.00;;
39782;SDS011;25462;51.164;17.100;2023-07-13T22:55:28;6.70;;;4.00;;
39782;SDS011;25462;51.164;17.100;2023-07-13T23:00:32;9.70;;;4.10;;
39782;SDS011;25462;51.164;17.100;2023-07-13T23:05:36;7.70;;;4.30;;
39782;SDS011;25462;51.164;17.100;2023-07-13T23:10:42;6.90;;;3.90;;
39782;SDS011;25462;51.164;17.100;2023-07-13T23:15:48;6.70;;;4.10;;
39782;SDS011;25462;51.164;17.100;2023-07-13T23:20:53;6.80;;;4.60;;
39782;SDS011;25462;51.164;17.100;2023-07-13T23:25:57;8.80;;;5.40;;
39782;SDS011;25462;51.164;17.100;2023-07-13T23:31:02;10.30;;;6.90;;
39782;SDS011;25462;51.164;17.100;2023-07-13T23:36:10;9.50;;;6.50;;
39782;SDS011;25462;51.164;17.100;2023-07-13T23:41:18;13.90;;;6.40;;
39782;SDS011;25462;51.164;17.100;2023-07-13T23:46:33;10.40;;;6.40;;
39782;SDS011;25462;51.164;17.100;2023-07-13T23:51:43;9.30;;;5.40;;
39782;SDS011;25462;51.164;17.100;2023-07-13T23:56:52;10.00;;;5.60;;
